sensor_id;sensor_type;location;lat;lon;timestamp;pressure;altitude;pressure_sealevel;temperature;humidity
46394;BME280;32099;53.588;10.176;2023-02-16T00:00:42;101900.63;;;2.24;84.90
46394;BME280;32099;53.588;10.176;2023-02-16T00:03:13;101894.41;;;2.24;84.39
46394;BME280;32099;53.588;10.176;2023-02-16T00:05:40;101902.47;;;2.24;84.64
46394;BME280;32099;53.588;10.176;2023-02-16T00:08:05;101889.09;;;2.22;84.87
46394;BME280;32099;53.588;10.176;2023-02-16T00:10:31;101895.34;;;2.23;84.55
46394;BME280;32099;53.588;10.176;2023-02-16T00:12:58;101886.50;;;2.21;84.75
46394;BME280;32099;53.588;10.176;2023-02-16T00:15:43;101890.81;;;2.23;85.03
46394;BME280;32099;53.588;10.176;2023-02-16T00:18:18;101887.06;;;2.26;84.25
46394;BME280;32099;53.588;10.176;2023-02-16T00:20:45;101886.97;;;2.27;84.60
46394;BME280;32099;53.588;10.176;2023-02-16T00:23:12;101903.13;;;2.27;83.66
46394;BME280;32099;53.588;10.176;2023-02-16T00:25:37;101886.31;;;2.24;84.08
46394;BME280;32099;53.588;10.176;2023-02-16T00:28:03;101880.25;;;2.20;84.79
46394;BME280;32099;53.588;10.176;2023-02-16T00:30:32;101878.31;;;2.22;84.14
46394;BME280;32099;53.588;10.176;2023-02-16T00:32:57;101884.59;;;2.23;84.65
46394;BME280;32099;53.588;10.176;2023-02-16T00:35:23;101880.34;;;2.19;84.48
46394;BME280;32099;53.588;10.176;2023-02-16T00:37:48;101883.91;;;2.19;84.42
46394;BME280;32099;53.588;10.176;2023-02-16T00:40:14;101875.81;;;2.19;85.18
46394;BME280;32099;53.588;10.176;2023-02-16T00:42:41;101870.25;;;2.22;84.64
46394;BME280;32099;53.588;10.176;2023-02-16T00:45:16;101872.84;;;2.24;84.68
46394;BME280;32099;53.588;10.176;2023-02-16T00:47:47;101874.38;;;2.28;84.53
46394;BME280;32099;53.588;10.176;2023-02-16T00:50:16;101868.78;;;2.31;84.58
46394;BME280;32099;53.588;10.176;2023-02-16T00:52:44;101868.91;;;2.29;83.79
46394;BME280;32099;53.588;10.176;2023-02-16T00:55:12;101870.81;;;2.27;84.42
46394;BME280;32099;53.588;10.176;2023-02-16T00:57:39;101868.97;;;2.28;84.47
46394;BME280;32099;53.588;10.176;2023-02-16T01:03:00;101865.06;;;2.19;84.16
46394;BME280;32099;53.588;10.176;2023-02-16T01:05:28;101863.44;;;2.16;84.10
46394;BME280;32099;53.588;10.176;2023-02-16T01:07:53;101862.59;;;2.16;83.93
46394;BME280;32099;53.588;10.176;2023-02-16T01:10:37;101861.94;;;2.12;83.84
46394;BME280;32099;53.588;10.176;2023-02-16T01:13:22;101864.06;;;2.07;84.15
46394;BME280;32099;53.588;10.176;2023-02-16T01:15:50;101868.66;;;2.05;84.52
46394;BME280;32099;53.588;10.176;2023-02-16T01:18:17;101867.81;;;2.05;84.49
46394;BME280;32099;53.588;10.176;2023-02-16T01:20:43;101868.00;;;2.02;84.91
46394;BME280;32099;53.588;10.176;2023-02-16T01:23:10;101856.59;;;1.98;84.71
46394;BME280;32099;53.588;10.176;2023-02-16T01:25:36;101859.16;;;1.99;85.36
46394;BME280;32099;53.588;10.176;2023-02-16T01:28:02;101852.81;;;2.00;85.28
46394;BME280;32099;53.588;10.176;2023-02-16T01:30:32;101855.69;;;1.97;85.02
46394;BME280;32099;53.588;10.176;2023-02-16T01:32:58;101850.53;;;1.94;84.51
46394;BME280;32099;53.588;10.176;2023-02-16T01:35:27;101849.66;;;1.94;85.27
46394;BME280;32099;53.588;10.176;2023-02-16T01:37:56;101847.84;;;1.94;84.95
46394;BME280;32099;53.588;10.176;2023-02-16T01:40:25;101845.25;;;1.93;84.88
46394;BME280;32099;53.588;10.176;2023-02-16T01:43:37;101836.41;;;1.91;84.48
46394;BME280;32099;53.588;10.176;2023-02-16T01:46:09;101840.16;;;1.88;85.17
46394;BME280;32099;53.588;10.176;2023-02-16T01:48:40;101843.75;;;1.89;84.25
46394;BME280;32099;53.588;10.176;2023-02-16T01:51:09;101846.44;;;1.89;84.39
46394;BME280;32099;53.588;10.176;2023-02-16T01:53:38;101836.31;;;1.92;84.41
46394;BME280;32099;53.588;10.176;2023-02-16T01:56:14;101832.88;;;1.90;84.65
46394;BME280;32099;53.588;10.176;2023-02-16T01:58:51;101834.00;;;1.86;84.69
46394;BME280;32099;53.588;10.176;2023-02-16T02:02:06;101840.28;;;1.87;84.45
46394;BME280;32099;53.588;10.176;2023-02-16T02:04:21;101825.75;;;1.89;84.77
46394;BME280;32099;53.588;10.176;2023-02-16T02:07:10;101831.72;;;1.94;84.46
46394;BME280;32099;53.588;10.176;2023-02-16T02:10:16;101838.59;;;1.98;84.63
46394;BME280;32099;53.588;10.176;2023-02-16T02:12:51;101830.53;;;1.98;84.15
46394;BME280;32099;53.588;10.176;2023-02-16T02:15:28;101837.09;;;1.94;84.41
46394;BME280;32099;53.588;10.176;2023-02-16T02:17:56;101835.38;;;1.93;84.51
46394;BME280;32099;53.588;10.176;2023-02-16T02:20:29;101836.97;;;1.96;85.14
46394;BME280;32099;53.588;10.176;2023-02-16T02:29:18;101836.88;;;1.97;84.28
46394;BME280;32099;53.588;10.176;2023-02-16T02:32:15;101829.56;;;1.99;84.64
46394;BME280;32099;53.588;10.176;2023-02-16T02:34:53;101826.78;;;2.01;84.60
46394;BME280;32099;53.588;10.176;2023-02-16T02:45:33;101823.13;;;2.02;84.91
46394;BME280;32099;53.588;10.176;2023-02-16T02:48:04;101822.16;;;2.03;84.97
46394;BME280;32099;53.588;10.176;2023-02-16T02:50:38;101825.72;;;2.04;84.75
46394;BME280;32099;53.588;10.176;2023-02-16T02:53:27;101819.69;;;2.00;84.89
46394;BME280;32099;53.588;10.176;2023-02-16T02:55:53;101811.63;;;2.00;85.03
46394;BME280;32099;53.588;10.176;2023-02-16T02:58:41;101824.19;;;1.99;84.44
46394;BME280;32099;53.588;10.176;2023-02-16T03:01:27;101814.50;;;1.97;84.59
46394;BME280;32099;53.588;10.176;2023-02-16T03:03:54;101804.88;;;1.93;85.21
46394;BME280;32099;53.588;10.176;2023-02-16T03:06:29;101818.25;;;1.94;84.95
46394;BME280;32099;53.588;10.176;2023-02-16T03:08:59;101810.06;;;1.96;84.80
46394;BME280;32099;53.588;10.176;2023-02-16T03:11:32;101807.69;;;1.91;85.06
46394;BME280;32099;53.588;10.176;2023-02-16T03:16:53;101799.94;;;1.87;84.92
46394;BME280;32099;53.588;10.176;2023-02-16T03:19:40;101796.47;;;1.84;84.60
46394;BME280;32099;53.588;10.176;2023-02-16T03:22:26;101795.81;;;1.81;84.35
46394;BME280;32099;53.588;10.176;2023-02-16T03:25:11;101801.28;;;1.79;84.78
46394;BME280;32099;53.588;10.176;2023-02-16T03:27:55;101803.97;;;1.79;84.89
46394;BME280;32099;53.588;10.176;2023-02-16T03:30:42;101798.56;;;1.79;85.22
46394;BME280;32099;53.588;10.176;2023-02-16T03:33:10;101799.47;;;1.80;85.04
46394;BME280;32099;53.588;10.176;2023-02-16T03:35:36;101800.41;;;1.79;85.11
46394;BME280;32099;53.588;10.176;2023-02-16T03:38:02;101807.72;;;1.77;84.42
46394;BME280;32099;53.588;10.176;2023-02-16T03:40:28;101795.34;;;1.74;85.00
46394;BME280;32099;53.588;10.176;2023-02-16T03:43:03;101800.72;;;1.74;85.18
46394;BME280;32099;53.588;10.176;2023-02-16T03:45:31;101795.34;;;1.74;84.17
46394;BME280;32099;53.588;10.176;2023-02-16T03:47:59;101792.72;;;1.73;84.42
46394;BME280;32099;53.588;10.176;2023-02-16T03:50:24;101784.97;;;1.68;84.94
46394;BME280;32099;53.588;10.176;2023-02-16T03:52:51;101790.34;;;1.68;84.82
46394;BME280;32099;53.588;10.176;2023-02-16T03:55:16;101784.97;;;1.68;84.27
46394;BME280;32099;53.588;10.176;2023-02-16T03:57:41;101787.00;;;1.64;84.68
46394;BME280;32099;53.588;10.176;2023-02-16T04:00:07;101785.38;;;1.62;84.77
46394;BME280;32099;53.588;10.176;2023-02-16T04:02:32;101779.34;;;1.58;84.74
46394;BME280;32099;53.588;10.176;2023-02-16T04:04:58;101791.06;;;1.57;84.67
46394;BME280;32099;53.588;10.176;2023-02-16T04:07:23;101785.75;;;1.56;84.65
46394;BME280;32099;53.588;10.176;2023-02-16T04:09:49;101770.69;;;1.53;85.25
46394;BME280;32099;53.588;10.176;2023-02-16T04:12:14;101766.38;;;1.50;85.12
46394;BME280;32099;53.588;10.176;2023-02-16T04:14:59;101757.56;;;1.48;84.90
46394;BME280;32099;53.588;10.176;2023-02-16T04:17:24;101770.16;;;1.48;84.76
46394;BME280;32099;53.588;10.176;2023-02-16T04:19:49;101766.56;;;1.47;84.30
46394;BME280;32099;53.588;10.176;2023-02-16T04:22:15;101757.66;;;1.47;84.70
46394;BME280;32099;53.588;10.176;2023-02-16T04:24:40;101760.44;;;1.45;84.35
46394;BME280;32099;53.588;10.176;2023-02-16T04:27:06;101775.53;;;1.48;84.39
46394;BME280;32099;53.588;10.176;2023-02-16T04:29:31;101779.16;;;1.47;84.51
46394;BME280;32099;53.588;10.176;2023-02-16T04:31:56;101754.09;;;1.46;84.74
46394;BME280;32099;53.588;10.176;2023-02-16T04:34:22;101769.44;;;1.44;84.75
46394;BME280;32099;53.588;10.176;2023-02-16T04:36:47;101766.88;;;1.43;84.53
46394;BME280;32099;53.588;10.176;2023-02-16T04:39:12;101771.41;;;1.42;84.58
46394;BME280;32099;53.588;10.176;2023-02-16T04:41:38;101771.41;;;1.42;84.62
46394;BME280;32099;53.588;10.176;2023-02-16T04:44:03;101773.31;;;1.40;84.40
46394;BME280;32099;53.588;10.176;2023-02-16T04:46:29;101766.22;;;1.39;84.37
46394;BME280;32099;53.588;10.176;2023-02-16T04:48:54;101774.38;;;1.37;84.63
46394;BME280;32099;53.588;10.176;2023-02-16T04:51:20;101768.13;;;1.37;85.24
46394;BME280;32099;53.588;10.176;2023-02-16T04:53:45;101766.41;;;1.36;85.84
46394;BME280;32099;53.588;10.176;2023-02-16T04:56:11;101767.34;;;1.35;85.44
46394;BME280;32099;53.588;10.176;2023-02-16T04:58:36;101770.03;;;1.35;85.21
46394;BME280;32099;53.588;10.176;2023-02-16T05:01:02;101762.28;;;1.30;85.61
46394;BME280;32099;53.588;10.176;2023-02-16T05:03:27;101766.31;;;1.37;85.06
46394;BME280;32099;53.588;10.176;2023-02-16T05:05:52;101762.75;;;1.37;84.75
46394;BME280;32099;53.588;10.176;2023-02-16T05:08:18;101760.25;;;1.34;85.25
46394;BME280;32099;53.588;10.176;2023-02-16T05:10:43;101754.81;;;1.35;85.49
46394;BME280;32099;53.588;10.176;2023-02-16T05:13:09;101757.28;;;1.38;85.44
46394;BME280;32099;53.588;10.176;2023-02-16T05:15:53;101764.28;;;1.41;84.83
46394;BME280;32099;53.588;10.176;2023-02-16T05:18:18;101759.78;;;1.42;84.58
46394;BME280;32099;53.588;10.176;2023-02-16T05:20:44;101756.13;;;1.43;84.75
46394;BME280;32099;53.588;10.176;2023-02-16T05:23:28;101764.97;;;1.45;83.91
46394;BME280;32099;53.588;10.176;2023-02-16T05:25:53;101758.91;;;1.41;84.20
46394;BME280;32099;53.588;10.176;2023-02-16T05:28:18;101754.03;;;1.33;85.14
46394;BME280;32099;53.588;10.176;2023-02-16T05:30:43;101751.03;;;1.38;85.26
46394;BME280;32099;53.588;10.176;2023-02-16T05:33:09;101750.84;;;1.41;84.64
46394;BME280;32099;53.588;10.176;2023-02-16T05:35:34;101759.88;;;1.40;85.07
46394;BME280;32099;53.588;10.176;2023-02-16T05:37:59;101765.91;;;1.44;84.94
46394;BME280;32099;53.588;10.176;2023-02-16T05:40:25;101772.25;;;1.43;84.37
46394;BME280;32099;53.588;10.176;2023-02-16T05:42:53;101773.22;;;1.42;84.77
46394;BME280;32099;53.588;10.176;2023-02-16T05:45:19;101774.81;;;1.44;85.31
46394;BME280;32099;53.588;10.176;2023-02-16T05:47:45;101773.88;;;1.45;85.89
46394;BME280;32099;53.588;10.176;2023-02-16T05:50:10;101771.28;;;1.44;85.65
46394;BME280;32099;53.588;10.176;2023-02-16T05:52:36;101770.16;;;1.48;85.56
46394;BME280;32099;53.588;10.176;2023-02-16T05:55:01;101778.75;;;1.53;86.37
46394;BME280;32099;53.588;10.176;2023-02-16T05:57:27;101770.22;;;1.61;86.26
46394;BME280;32099;53.588;10.176;2023-02-16T05:59:52;101776.91;;;1.68;85.92
46394;BME280;32099;53.588;10.176;2023-02-16T06:02:17;101776.06;;;1.67;85.92
46394;BME280;32099;53.588;10.176;2023-02-16T06:04:43;101773.38;;;1.67;85.70
46394;BME280;32099;53.588;10.176;2023-02-16T06:07:08;101776.16;;;1.66;86.15
46394;BME280;32099;53.588;10.176;2023-02-16T06:09:33;101763.56;;;1.66;86.29
46394;BME280;32099;53.588;10.176;2023-02-16T06:11:59;101762.59;;;1.67;86.08
46394;BME280;32099;53.588;10.176;2023-02-16T06:14:24;101768.75;;;1.69;85.65
46394;BME280;32099;53.588;10.176;2023-02-16T06:16:49;101770.78;;;1.66;85.44
46394;BME280;32099;53.588;10.176;2023-02-16T06:19:18;101768.94;;;1.66;85.53
46394;BME280;32099;53.588;10.176;2023-02-16T06:21:44;101758.00;;;1.69;85.09
46394;BME280;32099;53.588;10.176;2023-02-16T06:24:10;101754.53;;;1.67;85.09
46394;BME280;32099;53.588;10.176;2023-02-16T06:26:36;101766.13;;;1.68;85.36
46394;BME280;32099;53.588;10.176;2023-02-16T06:29:02;101774.91;;;1.72;85.05
46394;BME280;32099;53.588;10.176;2023-02-16T06:31:28;101773.81;;;1.74;85.76
46394;BME280;32099;53.588;10.176;2023-02-16T06:33:53;101767.50;;;1.75;85.19
46394;BME280;32099;53.588;10.176;2023-02-16T06:36:20;101776.41;;;1.76;85.34
46394;BME280;32099;53.588;10.176;2023-02-16T06:38:47;101762.66;;;1.80;85.76
46394;BME280;32099;53.588;10.176;2023-02-16T06:41:12;101763.34;;;1.84;85.97
46394;BME280;32099;53.588;10.176;2023-02-16T06:43:54;101764.75;;;1.90;85.31
46394;BME280;32099;53.588;10.176;2023-02-16T06:46:20;101762.72;;;1.93;85.58
46394;BME280;32099;53.588;10.176;2023-02-16T06:48:46;101757.81;;;2.00;85.54
46394;BME280;32099;53.588;10.176;2023-02-16T06:51:11;101769.22;;;2.04;85.42
46394;BME280;32099;53.588;10.176;2023-02-16T06:53:41;101773.41;;;2.08;85.07
46394;BME280;32099;53.588;10.176;2023-02-16T06:56:06;101781.94;;;2.14;84.80
46394;BME280;32099;53.588;10.176;2023-02-16T06:58:31;101779.06;;;2.18;85.59
46394;BME280;32099;53.588;10.176;2023-02-16T07:00:57;101766.34;;;2.20;86.29
46394;BME280;32099;53.588;10.176;2023-02-16T07:03:22;101768.84;;;2.23;85.16
46394;BME280;32099;53.588;10.176;2023-02-16T07:05:48;101765.28;;;2.22;86.07
46394;BME280;32099;53.588;10.176;2023-02-16T07:08:14;101766.88;;;2.25;85.76
46394;BME280;32099;53.588;10.176;2023-02-16T07:10:43;101772.06;;;2.28;85.90
46394;BME280;32099;53.588;10.176;2023-02-16T07:13:10;101763.81;;;2.31;86.02
46394;BME280;32099;53.588;10.176;2023-02-16T07:15:36;101753.56;;;2.36;85.52
46394;BME280;32099;53.588;10.176;2023-02-16T07:18:01;101753.16;;;2.42;85.20
46394;BME280;32099;53.588;10.176;2023-02-16T07:20:26;101752.97;;;2.45;86.24
46394;BME280;32099;53.588;10.176;2023-02-16T07:22:52;101755.34;;;2.50;85.14
46394;BME280;32099;53.588;10.176;2023-02-16T07:25:17;101764.69;;;2.57;85.36
46394;BME280;32099;53.588;10.176;2023-02-16T07:27:43;101757.06;;;2.64;85.46
46394;BME280;32099;53.588;10.176;2023-02-16T07:30:08;101755.66;;;2.71;85.56
46394;BME280;32099;53.588;10.176;2023-02-16T07:32:34;101759.66;;;2.78;85.47
46394;BME280;32099;53.588;10.176;2023-02-16T07:35:00;101746.41;;;2.88;85.83
46394;BME280;32099;53.588;10.176;2023-02-16T07:37:25;101756.75;;;2.95;85.19
46394;BME280;32099;53.588;10.176;2023-02-16T07:39:50;101759.66;;;3.04;85.32
46394;BME280;32099;53.588;10.176;2023-02-16T07:42:17;101766.34;;;3.12;84.75
46394;BME280;32099;53.588;10.176;2023-02-16T07:44:43;101764.06;;;3.18;85.73
46394;BME280;32099;53.588;10.176;2023-02-16T07:47:08;101762.22;;;3.19;86.00
46394;BME280;32099;53.588;10.176;2023-02-16T07:49:33;101768.91;;;3.26;85.64
46394;BME280;32099;53.588;10.176;2023-02-16T07:51:58;101760.25;;;3.34;86.05
46394;BME280;32099;53.588;10.176;2023-02-16T07:54:24;101749.59;;;3.32;85.66
46394;BME280;32099;53.588;10.176;2023-02-16T07:56:49;101759.38;;;3.46;85.95
46394;BME280;32099;53.588;10.176;2023-02-16T07:59:14;101757.97;;;3.53;85.91
46394;BME280;32099;53.588;10.176;2023-02-16T08:01:40;101749.41;;;3.60;86.58
46394;BME280;32099;53.588;10.176;2023-02-16T08:04:06;101746.91;;;3.69;86.02
46394;BME280;32099;53.588;10.176;2023-02-16T08:06:33;101747.94;;;3.80;85.80
46394;BME280;32099;53.588;10.176;2023-02-16T08:08:58;101761.63;;;3.90;85.52
46394;BME280;32099;53.588;10.176;2023-02-16T08:11:24;101763.84;;;3.96;85.74
46394;BME280;32099;53.588;10.176;2023-02-16T08:13:49;101768.88;;;4.00;85.79
46394;BME280;32099;53.588;10.176;2023-02-16T08:16:20;101775.22;;;4.12;86.46
46394;BME280;32099;53.588;10.176;2023-02-16T08:18:47;101770.94;;;4.21;85.93
46394;BME280;32099;53.588;10.176;2023-02-16T08:21:13;101769.38;;;4.30;86.68
46394;BME280;32099;53.588;10.176;2023-02-16T08:23:43;101769.56;;;4.40;86.35
46394;BME280;32099;53.588;10.176;2023-02-16T08:26:11;101767.75;;;4.52;86.14
46394;BME280;32099;53.588;10.176;2023-02-16T08:28:41;101757.94;;;4.62;87.14
46394;BME280;32099;53.588;10.176;2023-02-16T08:31:14;101751.94;;;4.70;86.41
46394;BME280;32099;53.588;10.176;2023-02-16T08:33:41;101757.59;;;4.78;85.93
46394;BME280;32099;53.588;10.176;2023-02-16T08:36:07;101761.56;;;4.85;85.86
46394;BME280;32099;53.588;10.176;2023-02-16T08:38:41;101751.97;;;4.92;85.37
46394;BME280;32099;53.588;10.176;2023-02-16T08:41:07;101750.41;;;5.01;85.37
46394;BME280;32099;53.588;10.176;2023-02-16T08:43:32;101758.00;;;5.07;85.57
46394;BME280;32099;53.588;10.176;2023-02-16T08:45:57;101760.25;;;5.14;85.50
46394;BME280;32099;53.588;10.176;2023-02-16T08:48:23;101755.56;;;5.16;85.75
46394;BME280;32099;53.588;10.176;2023-02-16T08:50:48;101762.56;;;5.18;85.82
46394;BME280;32099;53.588;10.176;2023-02-16T08:53:17;101752.13;;;5.25;85.78
46394;BME280;32099;53.588;10.176;2023-02-16T08:55:54;101747.69;;;5.35;85.96
46394;BME280;32099;53.588;10.176;2023-02-16T08:58:20;101740.16;;;5.50;85.33
46394;BME280;32099;53.588;10.176;2023-02-16T09:00:46;101747.50;;;5.60;85.49
46394;BME280;32099;53.588;10.176;2023-02-16T09:03:11;101752.31;;;5.67;85.36
46394;BME280;32099;53.588;10.176;2023-02-16T09:05:37;101746.41;;;5.74;85.63
46394;BME280;32099;53.588;10.176;2023-02-16T09:08:03;101745.63;;;5.83;85.12
46394;BME280;32099;53.588;10.176;2023-02-16T09:10:28;101735.16;;;5.90;85.49
46394;BME280;32099;53.588;10.176;2023-02-16T09:12:54;101737.97;;;5.99;84.99
46394;BME280;32099;53.588;10.176;2023-02-16T09:15:19;101741.03;;;6.06;84.48
46394;BME280;32099;53.588;10.176;2023-02-16T09:17:45;101743.63;;;6.08;83.98
46394;BME280;32099;53.588;10.176;2023-02-16T09:20:10;101763.19;;;6.11;83.97
46394;BME280;32099;53.588;10.176;2023-02-16T09:22:36;101758.34;;;6.15;84.00
46394;BME280;32099;53.588;10.176;2023-02-16T09:25:01;101761.66;;;6.18;84.05
46394;BME280;32099;53.588;10.176;2023-02-16T09:27:27;101759.53;;;6.22;84.36
46394;BME280;32099;53.588;10.176;2023-02-16T09:29:52;101757.47;;;6.26;84.42
46394;BME280;32099;53.588;10.176;2023-02-16T09:32:18;101766.28;;;6.28;84.35
46394;BME280;32099;53.588;10.176;2023-02-16T09:34:43;101762.34;;;6.32;84.32
46394;BME280;32099;53.588;10.176;2023-02-16T09:37:09;101778.78;;;6.40;84.38
46394;BME280;32099;53.588;10.176;2023-02-16T09:39:34;101779.41;;;6.44;83.81
46394;BME280;32099;53.588;10.176;2023-02-16T09:42:03;101770.16;;;6.46;84.09
46394;BME280;32099;53.588;10.176;2023-02-16T09:47:32;101781.06;;;6.56;84.17
46394;BME280;32099;53.588;10.176;2023-02-16T09:50:02;101791.38;;;6.62;83.96
46394;BME280;32099;53.588;10.176;2023-02-16T09:52:38;101782.00;;;6.67;84.25
46394;BME280;32099;53.588;10.176;2023-02-16T09:55:12;101792.31;;;6.73;84.19
46394;BME280;32099;53.588;10.176;2023-02-16T10:08:49;101793.09;;;6.85;83.59
46394;BME280;32099;53.588;10.176;2023-02-16T10:17:03;101784.69;;;7.09;83.12
46394;BME280;32099;53.588;10.176;2023-02-16T10:22:15;101787.22;;;7.32;82.12
46394;BME280;32099;53.588;10.176;2023-02-16T10:24:56;101785.41;;;7.42;82.09
46394;BME280;32099;53.588;10.176;2023-02-16T10:27:26;101779.03;;;7.53;81.76
46394;BME280;32099;53.588;10.176;2023-02-16T10:30:00;101780.19;;;7.60;81.04
46394;BME280;32099;53.588;10.176;2023-02-16T10:32:27;101786.75;;;7.67;81.52
46394;BME280;32099;53.588;10.176;2023-02-16T10:35:02;101790.06;;;7.71;80.81
46394;BME280;32099;53.588;10.176;2023-02-16T10:37:45;101788.47;;;7.68;80.11
46394;BME280;32099;53.588;10.176;2023-02-16T10:43:04;101779.31;;;7.60;81.15
46394;BME280;32099;53.588;10.176;2023-02-16T10:45:49;101780.19;;;7.60;81.08
46394;BME280;32099;53.588;10.176;2023-02-16T10:48:16;101786.34;;;7.62;81.13
46394;BME280;32099;53.588;10.176;2023-02-16T10:58:56;101798.78;;;7.65;80.75
46394;BME280;32099;53.588;10.176;2023-02-16T11:01:44;101780.91;;;7.62;80.82
46394;BME280;32099;53.588;10.176;2023-02-16T11:04:28;101791.19;;;7.68;81.68
46394;BME280;32099;53.588;10.176;2023-02-16T11:07:02;101789.22;;;7.70;80.63
46394;BME280;32099;53.588;10.176;2023-02-16T11:09:27;101792.50;;;7.74;80.90
46394;BME280;32099;53.588;10.176;2023-02-16T11:11:53;101785.94;;;7.77;80.93
46394;BME280;32099;53.588;10.176;2023-02-16T11:14:20;101781.78;;;7.82;80.80
46394;BME280;32099;53.588;10.176;2023-02-16T11:16:48;101781.41;;;7.87;80.88
46394;BME280;32099;53.588;10.176;2023-02-16T11:19:25;101779.25;;;7.91;80.11
46394;BME280;32099;53.588;10.176;2023-02-16T11:21:53;101775.97;;;7.97;80.50
46394;BME280;32099;53.588;10.176;2023-02-16T11:24:27;101790.00;;;8.02;80.36
46394;BME280;32099;53.588;10.176;2023-02-16T11:29:26;101782.00;;;8.10;79.73
46394;BME280;32099;53.588;10.176;2023-02-16T11:31:51;101776.00;;;8.16;79.27
46394;BME280;32099;53.588;10.176;2023-02-16T11:37:02;101768.72;;;8.27;79.71
46394;BME280;32099;53.588;10.176;2023-02-16T11:39:45;101770.44;;;8.28;79.30
46394;BME280;32099;53.588;10.176;2023-02-16T11:42:33;101771.13;;;8.30;79.48
46394;BME280;32099;53.588;10.176;2023-02-16T11:45:07;101773.56;;;8.33;79.37
46394;BME280;32099;53.588;10.176;2023-02-16T11:47:45;101770.56;;;8.36;78.95
46394;BME280;32099;53.588;10.176;2023-02-16T11:52:57;101767.41;;;8.31;79.21
46394;BME280;32099;53.588;10.176;2023-02-16T11:55:43;101769.00;;;8.33;79.59
46394;BME280;32099;53.588;10.176;2023-02-16T12:06:27;101762.97;;;8.40;79.19
46394;BME280;32099;53.588;10.176;2023-02-16T12:12:30;101753.97;;;8.39;79.55
46394;BME280;32099;53.588;10.176;2023-02-16T12:15:15;101752.81;;;8.42;79.37
46394;BME280;32099;53.588;10.176;2023-02-16T12:26:55;101749.44;;;8.49;79.34
46394;BME280;32099;53.588;10.176;2023-02-16T12:32:05;101755.09;;;8.46;79.61
46394;BME280;32099;53.588;10.176;2023-02-16T12:34:45;101743.34;;;8.46;80.11
46394;BME280;32099;53.588;10.176;2023-02-16T12:37:23;101742.13;;;8.50;80.42
46394;BME280;32099;53.588;10.176;2023-02-16T12:40:11;101747.97;;;8.55;80.22
46394;BME280;32099;53.588;10.176;2023-02-16T12:43:01;101747.66;;;8.58;80.12
46394;BME280;32099;53.588;10.176;2023-02-16T12:45:31;101742.22;;;8.58;80.17
46394;BME280;32099;53.588;10.176;2023-02-16T12:48:04;101741.22;;;8.59;80.49
46394;BME280;32099;53.588;10.176;2023-02-16T12:50:43;101740.94;;;8.62;80.28
46394;BME280;32099;53.588;10.176;2023-02-16T12:55:47;101733.94;;;8.60;80.29
46394;BME280;32099;53.588;10.176;2023-02-16T12:58:21;101735.78;;;8.59;80.57
46394;BME280;32099;53.588;10.176;2023-02-16T13:00:50;101735.66;;;8.61;80.64
46394;BME280;32099;53.588;10.176;2023-02-16T13:06:15;101722.75;;;8.63;80.52
46394;BME280;32099;53.588;10.176;2023-02-16T13:08:44;101721.91;;;8.62;80.83
46394;BME280;32099;53.588;10.176;2023-02-16T13:11:22;101711.19;;;8.61;81.03
46394;BME280;32099;53.588;10.176;2023-02-16T13:13:52;101715.31;;;8.65;81.31
46394;BME280;32099;53.588;10.176;2023-02-16T13:19:19;101705.00;;;8.69;81.17
46394;BME280;32099;53.588;10.176;2023-02-16T13:30:45;101706.72;;;8.70;82.58
46394;BME280;32099;53.588;10.176;2023-02-16T13:33:34;101694.13;;;8.69;82.18
46394;BME280;32099;53.588;10.176;2023-02-16T13:38:55;101699.00;;;8.75;82.27
46394;BME280;32099;53.588;10.176;2023-02-16T13:44:47;101674.50;;;8.75;82.13
46394;BME280;32099;53.588;10.176;2023-02-16T13:47:20;101675.22;;;8.77;82.49
46394;BME280;32099;53.588;10.176;2023-02-16T13:49:59;101673.91;;;8.81;82.34
46394;BME280;32099;53.588;10.176;2023-02-16T13:52:39;101678.34;;;8.82;82.32
46394;BME280;32099;53.588;10.176;2023-02-16T13:55:20;101678.22;;;8.84;82.13
46394;BME280;32099;53.588;10.176;2023-02-16T13:57:57;101671.91;;;8.83;82.49
46394;BME280;32099;53.588;10.176;2023-02-16T14:00:48;101676.75;;;8.89;82.38
46394;BME280;32099;53.588;10.176;2023-02-16T14:05:43;101674.88;;;8.90;82.75
46394;BME280;32099;53.588;10.176;2023-02-16T14:08:15;101681.03;;;8.92;82.93
46394;BME280;32099;53.588;10.176;2023-02-16T14:15:57;101677.28;;;9.03;82.72
46394;BME280;32099;53.588;10.176;2023-02-16T14:24:03;101663.91;;;9.09;82.76
46394;BME280;32099;53.588;10.176;2023-02-16T14:26:34;101658.88;;;9.15;82.67
46394;BME280;32099;53.588;10.176;2023-02-16T14:29:16;101652.59;;;9.14;82.42
46394;BME280;32099;53.588;10.176;2023-02-16T14:31:49;101656.00;;;9.16;82.66
46394;BME280;32099;53.588;10.176;2023-02-16T14:34:23;101663.31;;;9.16;82.61
46394;BME280;32099;53.588;10.176;2023-02-16T14:39:44;101653.03;;;9.09;82.82
46394;BME280;32099;53.588;10.176;2023-02-16T14:42:13;101654.72;;;9.10;82.89
46394;BME280;32099;53.588;10.176;2023-02-16T14:50:23;101641.00;;;9.12;82.78
46394;BME280;32099;53.588;10.176;2023-02-16T14:53:03;101649.88;;;9.14;82.67
46394;BME280;32099;53.588;10.176;2023-02-16T14:56:06;101640.38;;;9.18;82.71
46394;BME280;32099;53.588;10.176;2023-02-16T15:01:25;101640.47;;;9.26;82.41
46394;BME280;32099;53.588;10.176;2023-02-16T15:03:52;101642.34;;;9.26;82.63
46394;BME280;32099;53.588;10.176;2023-02-16T15:06:38;101641.50;;;9.25;82.79
46394;BME280;32099;53.588;10.176;2023-02-16T15:09:13;101636.72;;;9.27;82.77
46394;BME280;32099;53.588;10.176;2023-02-16T15:11:47;101629.97;;;9.32;82.45
46394;BME280;32099;53.588;10.176;2023-02-16T15:14:35;101630.81;;;9.32;82.14
46394;BME280;32099;53.588;10.176;2023-02-16T15:17:06;101630.69;;;9.34;82.43
46394;BME280;32099;53.588;10.176;2023-02-16T15:19:32;101633.56;;;9.32;82.23